createdAt,value
2023-04-18T00:00:59.775Z,97.55
2023-04-18T00:02:02.828Z,96.34
2023-04-18T00:03:09.706Z,94.92
2023-04-18T00:04:13.728Z,95.60
2023-04-18T00:05:18.304Z,98.24
2023-04-18T00:06:22.156Z,99.19
2023-04-18T00:07:23.804Z,100.00
2023-04-18T00:08:26.603Z,100.00
2023-04-18T00:09:28.103Z,100.00
2023-04-18T00:10:30.938Z,100.00
2023-04-18T00:11:32.599Z,100.00
2023-04-18T00:12:36.314Z,100.00
2023-04-18T00:13:38.548Z,100.00
2023-04-18T00:14:41.139Z,100.00
2023-04-18T00:15:44.609Z,100.00
2023-04-18T00:16:47.406Z,100.00
2023-04-18T00:17:49.219Z,100.00
2023-04-18T00:18:53.016Z,100.00
2023-04-18T00:19:56.323Z,100.00
2023-04-18T00:21:00.370Z,100.00
2023-04-18T00:22:07.117Z,100.00
2023-04-18T00:23:14.296Z,100.00
2023-04-18T00:24:16.676Z,100.00
2023-04-18T00:25:19.117Z,100.00
2023-04-18T00:26:20.786Z,100.00
2023-04-18T00:27:23.667Z,100.00
2023-04-18T00:28:25.331Z,100.00
2023-04-18T00:29:27.952Z,100.00
2023-04-18T00:30:29.529Z,100.00
2023-04-18T00:31:32.571Z,100.00
2023-04-18T00:32:34.202Z,100.00
2023-04-18T00:33:37.064Z,100.00
2023-04-18T00:34:38.924Z,100.00
2023-04-18T00:35:41.677Z,100.00
2023-04-18T00:36:44.807Z,100.00
2023-04-18T00:37:47.337Z,100.00
2023-04-18T00:38:49.074Z,100.00
2023-04-18T00:39:53.788Z,100.00
2023-04-18T00:40:55.379Z,100.00
2023-04-18T00:41:58.111Z,100.00
2023-04-18T00:43:00.134Z,100.00
2023-04-18T00:44:06.156Z,100.00
2023-04-18T00:45:11.630Z,100.00
2023-04-18T00:46:14.290Z,100.00
2023-04-18T00:47:16.791Z,100.00
2023-04-18T00:48:19.420Z,100.00
2023-04-18T00:49:21.984Z,100.00
2023-04-18T00:50:25.278Z,100.00
2023-04-18T00:51:27.937Z,100.00
2023-04-18T00:52:33.705Z,100.00
2023-04-18T00:53:36.046Z,100.00
2023-04-18T00:54:38.811Z,100.00
2023-04-18T00:55:40.644Z,100.00
2023-04-18T00:56:43.703Z,100.00
2023-04-18T00:57:45.868Z,100.00
2023-04-18T00:58:48.430Z,100.00
2023-04-18T00:59:50.416Z,100.00
2023-04-18T01:00:54.527Z,100.00
2023-04-18T01:01:56.392Z,100.00
2023-04-18T01:03:00.142Z,100.00
2023-04-18T01:04:04.775Z,100.00
2023-04-18T01:05:09.687Z,100.00
2023-04-18T01:06:11.435Z,100.00
2023-04-18T01:07:15.210Z,100.00
2023-04-18T01:08:19.542Z,100.00
2023-04-18T01:09:22.469Z,100.00
2023-04-18T01:10:24.068Z,100.00
2023-04-18T01:11:26.573Z,100.00
2023-04-18T01:12:28.104Z,100.00
2023-04-18T01:13:30.592Z,100.00
2023-04-18T01:14:32.800Z,100.00
2023-04-18T01:15:36.920Z,100.00
2023-04-18T01:16:40.048Z,100.00
2023-04-18T01:17:42.564Z,100.00
2023-04-18T01:18:44.119Z,100.00
2023-04-18T01:19:47.711Z,100.00
2023-04-18T01:20:51.008Z,100.00
2023-04-18T01:21:54.294Z,100.00
2023-04-18T01:22:57.377Z,100.00
2023-04-18T01:24:10.679Z,100.00
2023-04-18T01:25:12.435Z,100.00
2023-04-18T01:26:15.060Z,100.00
2023-04-18T01:27:16.575Z,100.00
2023-04-18T01:28:21.236Z,100.00
2023-04-18T01:29:22.835Z,100.00
2023-04-18T01:30:24.481Z,100.00
2023-04-18T01:31:27.441Z,100.00
2023-04-18T01:32:28.971Z,100.00
2023-04-18T01:33:31.474Z,100.00
2023-04-18T01:34:32.974Z,100.00
2023-04-18T01:35:35.458Z,100.00
2023-04-18T01:36:39.473Z,100.00
2023-04-18T01:37:41.983Z,100.00
2023-04-18T01:38:43.608Z,100.00
2023-04-18T01:39:48.738Z,100.00
2023-04-18T01:40:50.588Z,100.00
2023-04-18T01:41:53.102Z,100.00
2023-04-18T01:42:54.666Z,100.00
2023-04-18T01:43:57.092Z,100.00
2023-04-18T01:44:58.615Z,100.00
2023-04-18T01:46:01.129Z,100.00
2023-04-18T01:47:06.634Z,100.00
2023-04-18T01:48:09.225Z,100.00
2023-04-18T01:49:10.851Z,100.00
2023-04-18T01:50:14.043Z,100.00
2023-04-18T01:51:15.743Z,100.00
2023-04-18T01:52:18.218Z,100.00
2023-04-18T01:53:19.857Z,100.00
2023-04-18T01:54:22.386Z,100.00
2023-04-18T01:55:25.218Z,100.00
2023-04-18T01:56:27.679Z,100.00
2023-04-18T01:57:29.401Z,100.00
2023-04-18T01:58:33.567Z,100.00
2023-04-18T01:59:35.303Z,100.00
2023-04-18T02:00:37.936Z,100.00
2023-04-18T02:01:39.502Z,100.00
2023-04-18T02:02:42.760Z,100.00
2023-04-18T02:03:45.034Z,100.00
2023-04-18T02:04:47.803Z,100.00
2023-04-18T02:05:49.321Z,100.00
2023-04-18T02:06:51.807Z,100.00
2023-04-18T02:07:53.565Z,100.00
2023-04-18T02:08:56.171Z,100.00
2023-04-18T02:09:57.696Z,100.00
2023-04-18T02:11:01.863Z,100.00
2023-04-18T02:12:07.072Z,100.00
2023-04-18T02:13:14.459Z,100.00
2023-04-18T02:14:16.130Z,100.00
2023-04-18T02:15:19.101Z,100.00
2023-04-18T02:16:20.917Z,100.00
2023-04-18T02:17:24.093Z,100.00
2023-04-18T02:18:26.513Z,100.00
2023-04-18T02:19:30.952Z,100.00
2023-04-18T02:20:33.831Z,100.00
2023-04-18T02:21:36.390Z,100.00
2023-04-18T02:22:38.226Z,100.00
2023-04-18T02:23:40.756Z,100.00
2023-04-18T02:24:42.305Z,100.00
2023-04-18T02:25:44.791Z,100.00
2023-04-18T02:26:47.754Z,100.00
2023-04-18T02:27:50.356Z,100.00
2023-04-18T02:28:51.945Z,100.00
2023-04-18T02:29:54.725Z,100.00
2023-04-18T02:30:57.221Z,100.00
2023-04-18T02:31:58.784Z,100.00
2023-04-18T02:33:01.308Z,100.00
2023-04-18T02:34:05.462Z,100.00
2023-04-18T02:35:08.969Z,100.00
2023-04-18T02:36:12.311Z,100.00
2023-04-18T02:37:14.932Z,100.00
2023-04-18T02:38:16.535Z,100.00
2023-04-18T02:39:18.993Z,100.00
2023-04-18T02:40:20.768Z,100.00
2023-04-18T02:41:23.744Z,100.00
2023-04-18T02:42:26.690Z,100.00
2023-04-18T02:43:29.182Z,100.00
2023-04-18T02:44:30.725Z,100.00
2023-04-18T02:45:33.628Z,100.00
2023-04-18T02:46:36.200Z,100.00
2023-04-18T02:47:51.291Z,100.00
2023-04-18T02:48:57.449Z,100.00
2023-04-18T02:49:58.981Z,100.00
2023-04-18T02:51:03.725Z,100.00
2023-04-18T02:52:05.272Z,100.00
2023-04-18T02:53:07.819Z,100.00
2023-04-18T02:54:09.390Z,100.00
2023-04-18T02:55:11.889Z,100.00
2023-04-18T02:56:16.990Z,100.00
2023-04-18T02:57:19.559Z,100.00
2023-04-18T02:58:22.863Z,100.00
2023-04-18T02:59:25.418Z,100.00
2023-04-18T03:00:29.300Z,100.00
2023-04-18T03:01:31.847Z,100.00
2023-04-18T03:02:33.462Z,100.00
2023-04-18T03:03:36.183Z,100.00
2023-04-18T03:04:37.859Z,100.00
2023-04-18T03:05:40.565Z,100.00
2023-04-18T03:06:42.137Z,100.00
2023-04-18T03:07:46.247Z,100.00
2023-04-18T03:08:47.822Z,100.00
2023-04-18T03:09:50.326Z,100.00
2023-04-18T03:10:51.838Z,100.00
2023-04-18T03:11:54.520Z,100.00
2023-04-18T03:12:56.112Z,100.00
2023-04-18T03:13:59.965Z,100.00
2023-04-18T03:15:06.730Z,100.00
2023-04-18T03:16:09.525Z,100.00
2023-04-18T03:17:12.369Z,100.00
2023-04-18T03:18:14.663Z,100.00
2023-04-18T03:19:17.190Z,100.00
2023-04-18T03:20:19.863Z,100.00
2023-04-18T03:21:21.411Z,100.00
2023-04-18T03:22:24.143Z,100.00
2023-04-18T03:23:25.672Z,100.00
2023-04-18T03:24:28.173Z,100.00
2023-04-18T03:25:29.765Z,100.00
2023-04-18T03:26:32.296Z,100.00
2023-04-18T03:27:33.930Z,100.00
2023-04-18T03:28:36.415Z,100.00
2023-04-18T03:29:39.281Z,100.00
2023-04-18T03:30:42.844Z,100.00
2023-04-18T03:31:44.477Z,100.00
2023-04-18T03:32:48.916Z,100.00
2023-04-18T03:33:51.676Z,100.00
2023-04-18T03:34:54.142Z,100.00
2023-04-18T03:35:55.754Z,100.00
2023-04-18T03:36:58.509Z,100.00
2023-04-18T03:38:00.163Z,100.00
2023-04-18T03:39:05.930Z,100.00
2023-04-18T03:40:08.951Z,100.00
2023-04-18T03:41:11.573Z,100.00
2023-04-18T03:42:13.073Z,100.00
2023-04-18T03:43:15.715Z,100.00
2023-04-18T03:44:17.264Z,100.00
2023-04-18T03:45:21.313Z,100.00
2023-04-18T03:46:24.602Z,100.00
2023-04-18T03:47:27.249Z,100.00
2023-04-18T03:48:30.905Z,100.00
2023-04-18T03:49:32.520Z,100.00
2023-04-18T03:50:35.148Z,100.00
2023-04-18T03:51:43.220Z,100.00
2023-04-18T03:52:45.872Z,100.00
2023-04-18T03:53:47.463Z,100.00
2023-04-18T03:54:50.004Z,100.00
2023-04-18T03:55:51.705Z,100.00
2023-04-18T03:56:54.422Z,100.00
2023-04-18T03:57:55.948Z,100.00
2023-04-18T03:58:58.746Z,100.00
2023-04-18T04:00:00.895Z,100.00
2023-04-18T04:01:08.325Z,100.00
2023-04-18T04:02:09.986Z,100.00
2023-04-18T04:03:12.674Z,100.00
2023-04-18T04:04:15.672Z,100.00
2023-04-18T04:05:18.674Z,100.00
2023-04-18T04:06:20.485Z,100.00
2023-04-18T04:07:23.329Z,100.00
2023-04-18T04:08:26.983Z,100.00
2023-04-18T04:09:30.656Z,100.00
2023-04-18T04:10:32.341Z,100.00
2023-04-18T04:11:37.889Z,100.00
2023-04-18T04:12:39.417Z,100.00
2023-04-18T04:13:41.894Z,100.00
2023-04-18T04:14:43.534Z,100.00
2023-04-18T04:15:46.060Z,100.00
2023-04-18T04:16:48.979Z,100.00
2023-04-18T04:17:51.708Z,100.00
2023-04-18T04:18:53.307Z,100.00
2023-04-18T04:19:56.086Z,100.00
2023-04-18T04:20:59.046Z,100.00
2023-04-18T04:22:01.709Z,100.00
2023-04-18T04:23:03.523Z,100.00
2023-04-18T04:24:06.966Z,100.00
2023-04-18T04:25:10.484Z,100.00
2023-04-18T04:26:14.714Z,100.00
2023-04-18T04:27:18.769Z,100.00
2023-04-18T04:28:22.676Z,100.00
2023-04-18T04:29:26.294Z,100.00
2023-04-18T04:30:28.678Z,100.00
2023-04-18T04:31:31.821Z,100.00
2023-04-18T04:32:35.593Z,100.00
2023-04-18T04:33:39.237Z,100.00
2023-04-18T04:34:41.686Z,100.00
2023-04-18T04:35:44.357Z,100.00
2023-04-18T04:36:46.723Z,100.00
2023-04-18T04:37:50.704Z,100.00
2023-04-18T04:38:52.362Z,100.00
2023-04-18T04:39:56.524Z,100.00
2023-04-18T04:40:58.333Z,100.00
2023-04-18T04:42:03.732Z,100.00
2023-04-18T04:43:08.068Z,100.00
2023-04-18T04:44:09.713Z,100.00
2023-04-18T04:45:12.570Z,100.00
2023-04-18T04:46:14.753Z,100.00
2023-04-18T04:47:17.380Z,100.00
2023-04-18T04:48:22.095Z,100.00
2023-04-18T04:49:24.720Z,100.00
2023-04-18T04:50:26.286Z,100.00
2023-04-18T04:51:28.868Z,100.00
2023-04-18T04:52:32.586Z,100.00
2023-04-18T04:53:35.292Z,100.00
2023-04-18T04:54:36.899Z,100.00
2023-04-18T04:55:39.821Z,100.00
2023-04-18T04:56:41.577Z,100.00
2023-04-18T04:57:44.794Z,100.00
2023-04-18T04:58:47.210Z,100.00
2023-04-18T04:59:49.676Z,100.00
2023-04-18T05:00:52.596Z,100.00
2023-04-18T05:01:55.299Z,100.00
2023-04-18T05:02:57.470Z,100.00
2023-04-18T05:04:01.481Z,100.00
2023-04-18T05:05:05.998Z,100.00
2023-04-18T05:06:11.164Z,100.00
2023-04-18T05:07:13.865Z,100.00
2023-04-18T05:08:15.503Z,100.00
2023-04-18T05:09:18.121Z,100.00
2023-04-18T05:10:20.051Z,100.00
2023-04-18T05:11:22.820Z,100.00
2023-04-18T05:12:24.371Z,100.00
2023-04-18T05:13:26.932Z,100.00
2023-04-18T05:14:28.552Z,100.00
2023-04-18T05:15:31.308Z,100.00
2023-04-18T05:16:34.017Z,100.00
2023-04-18T05:17:35.858Z,100.00
2023-04-18T05:18:40.316Z,100.00
2023-04-18T05:19:44.600Z,100.00
2023-04-18T05:20:46.237Z,100.00
2023-04-18T05:21:48.768Z,100.00
2023-04-18T05:22:50.428Z,100.00
2023-04-18T05:23:52.967Z,100.00
2023-04-18T05:24:54.516Z,100.00
2023-04-18T05:25:58.094Z,100.00
2023-04-18T05:26:59.705Z,100.00
2023-04-18T05:28:04.611Z,100.00
2023-04-18T05:29:07.194Z,100.00
2023-04-18T05:30:12.728Z,100.00
2023-04-18T05:31:15.324Z,100.00
2023-04-18T05:32:18.523Z,100.00
2023-04-18T05:33:20.118Z,100.00
2023-04-18T05:34:22.704Z,100.00
2023-04-18T05:35:25.718Z,100.00
2023-04-18T05:36:28.666Z,100.00
2023-04-18T05:37:30.431Z,100.00
2023-04-18T05:38:33.425Z,100.00
2023-04-18T05:39:35.000Z,100.00
2023-04-18T05:40:37.584Z,100.00
2023-04-18T05:41:40.306Z,100.00
2023-04-18T05:42:41.870Z,100.00
2023-04-18T05:43:51.044Z,100.00
2023-04-18T05:44:59.634Z,100.00
2023-04-18T05:46:05.254Z,100.00
2023-04-18T05:47:07.990Z,100.00
2023-04-18T05:48:11.743Z,100.00
2023-04-18T05:49:14.695Z,100.00
2023-04-18T05:50:16.300Z,100.00
2023-04-18T05:51:20.396Z,100.00
2023-04-18T05:52:22.083Z,100.00
2023-04-18T05:53:24.753Z,100.00
2023-04-18T05:54:26.367Z,100.00
2023-04-18T05:55:29.124Z,100.00
2023-04-18T05:56:31.771Z,100.00
2023-04-18T05:57:33.384Z,100.00
2023-04-18T05:58:35.895Z,100.00
2023-04-18T05:59:37.497Z,100.00
2023-04-18T06:00:39.984Z,100.00
2023-04-18T06:01:41.536Z,100.00
2023-04-18T06:02:44.260Z,100.00
2023-04-18T06:03:46.135Z,100.00
2023-04-18T06:04:49.266Z,100.00
2023-04-18T06:05:51.914Z,100.00
2023-04-18T06:06:54.920Z,100.00
2023-04-18T06:07:57.502Z,100.00
2023-04-18T06:08:59.208Z,100.00
2023-04-18T06:10:01.976Z,100.00
2023-04-18T06:11:06.746Z,100.00
2023-04-18T06:12:08.296Z,100.00
2023-04-18T06:13:11.975Z,100.00
2023-04-18T06:14:13.829Z,100.00
2023-04-18T06:15:16.398Z,100.00
2023-04-18T06:16:18.127Z,100.00
2023-04-18T06:17:21.476Z,100.00
2023-04-18T06:18:24.392Z,100.00
2023-04-18T06:19:25.992Z,100.00
2023-04-18T06:20:28.499Z,100.00
2023-04-18T06:21:33.160Z,100.00
2023-04-18T06:22:37.096Z,100.00
2023-04-18T06:23:38.663Z,100.00
2023-04-18T06:24:41.288Z,100.00
2023-04-18T06:25:43.082Z,100.00
2023-04-18T06:26:45.756Z,100.00
2023-04-18T06:27:48.284Z,100.00
2023-04-18T06:28:50.794Z,100.00
2023-04-18T06:29:52.389Z,100.00
2023-04-18T06:30:54.890Z,100.00
2023-04-18T06:31:57.885Z,100.00
2023-04-18T06:33:00.691Z,100.00
2023-04-18T06:34:04.362Z,100.00
2023-04-18T06:35:08.493Z,100.00
2023-04-18T06:36:11.526Z,100.00
2023-04-18T06:37:14.055Z,100.00
2023-04-18T06:38:17.895Z,100.00
2023-04-18T06:39:20.618Z,100.00
2023-04-18T06:40:23.362Z,100.00
2023-04-18T06:41:25.110Z,100.00
2023-04-18T06:42:27.650Z,100.00
2023-04-18T06:43:29.203Z,100.00
2023-04-18T06:44:32.622Z,100.00
2023-04-18T06:45:35.272Z,100.00
2023-04-18T06:46:36.957Z,100.00
2023-04-18T06:47:39.933Z,100.00
2023-04-18T06:48:42.655Z,98.32
2023-04-18T06:49:46.130Z,97.01
2023-04-18T06:50:48.670Z,96.83
2023-04-18T06:51:51.191Z,97.33
2023-04-18T06:52:53.981Z,96.97
2023-04-18T06:54:03.302Z,97.82
2023-04-18T06:55:07.501Z,97.87
2023-04-18T06:56:13.698Z,100.00
2023-04-18T06:57:17.020Z,100.00
2023-04-18T06:58:19.559Z,100.00
2023-04-18T06:59:21.844Z,99.85
2023-04-18T07:00:42.968Z,99.55
2023-04-18T07:01:44.703Z,100.00
2023-04-18T07:02:56.528Z,100.00
2023-04-18T07:03:58.233Z,99.34
2023-04-18T07:05:01.012Z,99.21
2023-04-18T07:06:06.375Z,98.16
2023-04-18T07:07:12.986Z,98.59
2023-04-18T07:08:14.518Z,97.86
2023-04-18T07:09:18.307Z,97.24
2023-04-18T07:10:20.803Z,98.33
2023-04-18T07:11:23.770Z,99.42
2023-04-18T07:12:26.624Z,98.05
2023-04-18T07:13:29.341Z,96.91
2023-04-18T07:14:33.973Z,95.49
2023-04-18T07:15:35.846Z,94.53
2023-04-18T07:16:38.450Z,94.21
2023-04-18T07:17:40.022Z,94.03
2023-04-18T07:18:42.751Z,96.64
2023-04-18T07:19:44.371Z,97.38
2023-04-18T07:20:46.823Z,97.91
2023-04-18T07:21:48.402Z,97.01
2023-04-18T07:22:50.884Z,96.40
2023-04-18T07:23:52.445Z,94.48
2023-04-18T07:24:56.239Z,94.32
2023-04-18T07:25:59.589Z,94.83
2023-04-18T07:27:09.370Z,94.60
2023-04-18T07:28:10.887Z,95.14
2023-04-18T07:29:13.353Z,95.12
2023-04-18T07:30:16.296Z,94.16
2023-04-18T07:31:19.460Z,93.17
2023-04-18T07:32:22.111Z,94.31
2023-04-18T07:33:24.721Z,93.63
2023-04-18T07:34:29.915Z,93.04
2023-04-18T07:35:32.569Z,91.95
2023-04-18T07:36:35.148Z,92.57
2023-04-18T07:37:37.746Z,92.16
2023-04-18T07:38:40.195Z,91.55
2023-04-18T07:39:42.726Z,90.35
2023-04-18T07:40:47.125Z,90.23
2023-04-18T07:41:49.727Z,89.49
2023-04-18T07:42:52.290Z,91.10
2023-04-18T07:43:54.821Z,90.81
2023-04-18T07:44:57.930Z,91.35
2023-04-18T07:46:00.709Z,90.18
2023-04-18T07:47:10.860Z,89.99
2023-04-18T07:48:12.517Z,89.93
2023-04-18T07:49:15.295Z,89.93
2023-04-18T07:50:18.025Z,88.31
2023-04-18T07:51:19.675Z,89.13
2023-04-18T07:52:22.240Z,89.02
2023-04-18T07:53:24.783Z,89.15
2023-04-18T07:54:27.246Z,88.79
2023-04-18T07:55:28.889Z,88.64
2023-04-18T07:56:32.757Z,89.33
2023-04-18T07:57:34.329Z,88.87
2023-04-18T07:58:36.994Z,88.06
2023-04-18T07:59:38.797Z,90.10
2023-04-18T08:00:42.683Z,89.31
2023-04-18T08:01:44.534Z,90.60
2023-04-18T08:02:47.493Z,90.37
2023-04-18T08:03:49.324Z,89.25
2023-04-18T08:04:52.419Z,90.59
2023-04-18T08:05:55.481Z,88.86
2023-04-18T08:06:57.987Z,89.55
2023-04-18T08:08:00.549Z,90.49
2023-04-18T08:09:06.012Z,89.45
2023-04-18T08:10:12.582Z,90.25
2023-04-18T08:11:14.169Z,90.35
2023-04-18T08:12:18.372Z,89.51
2023-04-18T08:13:21.116Z,88.96
2023-04-18T08:14:23.638Z,89.42
2023-04-18T08:15:27.230Z,90.18
2023-04-18T08:16:29.941Z,89.74
2023-04-18T08:17:33.121Z,89.42
2023-04-18T08:18:35.798Z,90.95
2023-04-18T08:19:38.313Z,90.84
2023-04-18T08:20:41.091Z,90.24
2023-04-18T08:21:43.624Z,89.79
2023-04-18T08:23:02.036Z,87.40
2023-04-18T08:24:10.012Z,88.58
2023-04-18T08:25:11.862Z,90.32
2023-04-18T08:26:14.555Z,90.43
2023-04-18T08:27:17.453Z,89.58
2023-04-18T08:28:20.159Z,87.59
2023-04-18T08:29:22.914Z,87.19
2023-04-18T08:30:25.925Z,86.78
2023-04-18T08:31:28.811Z,84.98
2023-04-18T08:32:31.524Z,85.57
2023-04-18T08:33:34.036Z,86.00
2023-04-18T08:34:39.543Z,84.69
2023-04-18T08:35:42.120Z,85.30
2023-04-18T08:36:46.799Z,85.73
2023-04-18T08:37:49.404Z,85.39
2023-04-18T08:38:51.303Z,86.07
2023-04-18T08:39:53.960Z,86.79
2023-04-18T08:40:56.602Z,88.49
2023-04-18T08:41:59.732Z,88.87
2023-04-18T08:43:12.749Z,87.25
2023-04-18T08:44:15.891Z,86.68
2023-04-18T08:45:19.164Z,85.89
2023-04-18T08:46:25.381Z,87.27
2023-04-18T08:47:29.136Z,88.76
2023-04-18T08:48:31.862Z,87.91
2023-04-18T08:49:34.515Z,87.37
2023-04-18T08:50:36.252Z,86.65
2023-04-18T08:51:41.610Z,84.84
2023-04-18T08:52:48.090Z,84.19
2023-04-18T08:53:51.346Z,83.06
2023-04-18T08:54:53.281Z,83.68
2023-04-18T08:55:56.422Z,84.46
2023-04-18T08:57:04.907Z,85.60
2023-04-18T08:58:12.387Z,85.39
2023-04-18T08:59:18.419Z,84.40
2023-04-18T09:00:22.541Z,83.66
2023-04-18T09:01:52.210Z,83.55
2023-04-18T09:02:56.851Z,84.33
2023-04-18T09:03:58.805Z,84.70
2023-04-18T09:05:01.909Z,84.32
2023-04-18T09:06:08.463Z,84.85
2023-04-18T09:07:17.388Z,83.78
2023-04-18T09:08:23.996Z,84.05
2023-04-18T09:09:27.593Z,83.45
2023-04-18T09:10:32.608Z,84.45
2023-04-18T09:11:34.497Z,83.53
2023-04-18T09:12:50.162Z,82.25
2023-04-18T09:13:55.926Z,81.50
2023-04-18T09:15:11.208Z,80.93
2023-04-18T09:16:13.497Z,82.19
2023-04-18T09:17:21.883Z,81.72
2023-04-18T09:18:24.272Z,80.95
2023-04-18T09:19:27.004Z,80.39
2023-04-18T09:20:34.714Z,79.53
2023-04-18T09:21:39.614Z,80.04
2023-04-18T09:22:50.529Z,77.71
2023-04-18T09:24:17.548Z,79.56
2023-04-18T09:25:27.462Z,79.13
2023-04-18T09:26:33.807Z,81.06
2023-04-18T09:27:36.556Z,80.29
2023-04-18T09:28:38.389Z,80.51
2023-04-18T09:29:47.446Z,81.66
2023-04-18T09:30:52.389Z,81.90
2023-04-18T09:32:01.060Z,81.12
2023-04-18T09:33:07.427Z,80.81
2023-04-18T09:34:25.041Z,80.86
2023-04-18T09:35:30.549Z,81.64
2023-04-18T09:36:32.325Z,83.55
2023-04-18T09:37:36.178Z,83.64
2023-04-18T09:38:42.147Z,83.90
2023-04-18T09:39:44.937Z,83.69
2023-04-18T09:40:47.562Z,83.70
2023-04-18T09:41:58.547Z,84.47
2023-04-18T09:43:01.563Z,83.23
2023-04-18T09:44:14.289Z,82.49
2023-04-18T09:45:18.859Z,82.56
2023-04-18T09:46:22.638Z,82.90
2023-04-18T09:47:25.466Z,83.91
2023-04-18T09:48:27.994Z,82.14
2023-04-18T09:49:29.631Z,82.87
2023-04-18T09:50:33.575Z,81.70
2023-04-18T09:51:35.537Z,81.63
2023-04-18T09:52:39.745Z,82.36
2023-04-18T09:53:44.682Z,81.98
2023-04-18T09:54:48.327Z,81.16
2023-04-18T09:55:52.216Z,79.73
2023-04-18T09:56:56.381Z,80.23
2023-04-18T09:58:01.805Z,79.75
2023-04-18T09:59:08.668Z,80.06
2023-04-18T10:00:17.259Z,81.42
2023-04-18T10:01:21.241Z,81.45
2023-04-18T10:02:25.101Z,80.56
2023-04-18T10:03:35.281Z,80.79
2023-04-18T10:04:37.269Z,81.15
2023-04-18T10:05:41.629Z,80.85
2023-04-18T10:06:46.760Z,81.22
2023-04-18T10:07:50.901Z,82.97
2023-04-18T10:08:53.633Z,83.91
2023-04-18T10:09:56.230Z,83.67
2023-04-18T10:10:58.890Z,84.01
2023-04-18T10:12:02.662Z,84.57
2023-04-18T10:13:14.862Z,83.79
2023-04-18T10:14:17.769Z,83.77
2023-04-18T10:15:23.384Z,83.20
2023-04-18T10:16:26.990Z,82.94
2023-04-18T10:17:29.891Z,82.86
2023-04-18T10:18:32.633Z,82.41
2023-04-18T10:19:36.004Z,82.23
2023-04-18T10:20:41.397Z,82.41
2023-04-18T10:21:51.411Z,82.46
2023-04-18T10:22:55.720Z,82.09
2023-04-18T10:23:57.249Z,82.00
2023-04-18T10:24:59.826Z,81.22
2023-04-18T10:26:11.193Z,81.23
2023-04-18T10:27:12.809Z,81.83
2023-04-18T10:28:15.764Z,81.73
2023-04-18T10:29:18.322Z,81.54
2023-04-18T10:30:20.917Z,81.95
2023-04-18T10:31:23.881Z,82.22
2023-04-18T10:32:28.684Z,83.65
2023-04-18T10:33:42.374Z,82.49
2023-04-18T10:34:46.519Z,81.82
2023-04-18T10:35:57.745Z,81.63
2023-04-18T10:37:06.963Z,82.96
2023-04-18T10:38:16.672Z,82.50
2023-04-18T10:39:25.564Z,83.04
2023-04-18T10:40:33.961Z,83.20
2023-04-18T10:41:50.993Z,83.38
2023-04-18T10:43:00.604Z,83.82
2023-04-18T10:44:20.580Z,83.70
2023-04-18T10:45:23.437Z,84.11
2023-04-18T10:46:32.564Z,83.31
2023-04-18T10:47:37.223Z,81.93
2023-04-18T10:48:39.363Z,80.46
2023-04-18T10:49:54.646Z,79.87
2023-04-18T10:51:14.119Z,80.58
2023-04-18T10:52:15.966Z,81.02
2023-04-18T10:53:18.495Z,82.16
2023-04-18T10:54:22.327Z,81.18
2023-04-18T10:55:27.995Z,80.26
2023-04-18T10:56:29.901Z,81.35
2023-04-18T10:57:41.592Z,81.70
2023-04-18T10:58:50.153Z,83.21
2023-04-18T10:59:52.528Z,82.63
2023-04-18T11:00:55.814Z,82.39
2023-04-18T11:02:03.350Z,82.00
2023-04-18T11:03:08.446Z,81.21
2023-04-18T11:04:14.356Z,80.66
2023-04-18T11:05:21.312Z,81.89
2023-04-18T11:06:25.751Z,82.59
2023-04-18T11:07:34.923Z,83.90
2023-04-18T11:08:37.449Z,84.04
2023-04-18T11:09:39.068Z,83.52
2023-04-18T11:10:41.575Z,82.81
2023-04-18T11:11:44.090Z,83.23
2023-04-18T11:12:47.045Z,83.89
2023-04-18T11:13:57.475Z,83.76
2023-04-18T11:15:01.540Z,84.58
2023-04-18T11:16:08.273Z,83.79
2023-04-18T11:17:21.177Z,83.92
2023-04-18T11:18:25.849Z,85.28
2023-04-18T11:19:28.006Z,85.24
2023-04-18T11:20:38.774Z,85.39
2023-04-18T11:21:43.379Z,83.99
2023-04-18T11:22:51.364Z,84.00
2023-04-18T11:23:56.102Z,83.26
2023-04-18T11:24:59.301Z,82.20
2023-04-18T11:26:07.754Z,82.65
2023-04-18T11:27:15.681Z,82.15
2023-04-18T11:28:21.312Z,82.83
2023-04-18T11:29:23.184Z,83.66
2023-04-18T11:30:26.073Z,85.00
2023-04-18T11:31:27.740Z,84.97
2023-04-18T11:32:30.557Z,84.25
2023-04-18T11:33:34.473Z,84.86
2023-04-18T11:34:36.572Z,84.46
2023-04-18T11:35:39.833Z,83.79
2023-04-18T11:36:41.532Z,82.88
2023-04-18T11:37:46.680Z,82.11
2023-04-18T11:38:48.402Z,81.83
2023-04-18T11:39:53.265Z,83.05
2023-04-18T11:40:54.930Z,83.01
2023-04-18T11:41:58.199Z,82.61
2023-04-18T11:43:01.947Z,81.43
2023-04-18T11:44:07.719Z,81.28
2023-04-18T11:45:11.658Z,80.58
2023-04-18T11:46:14.935Z,81.02
2023-04-18T11:47:23.997Z,80.58
2023-04-18T11:48:36.956Z,80.27
2023-04-18T11:49:39.856Z,79.73
2023-04-18T11:50:42.371Z,79.64
2023-04-18T11:51:46.305Z,81.12
2023-04-18T11:52:51.992Z,82.33
2023-04-18T11:53:53.599Z,81.69
2023-04-18T11:54:56.758Z,80.78
2023-04-18T11:56:01.010Z,80.54
2023-04-18T11:57:24.482Z,79.79
2023-04-18T11:58:32.333Z,79.41
2023-04-18T11:59:34.110Z,79.00
2023-04-18T12:00:38.550Z,78.89
2023-04-18T12:01:41.717Z,77.91
2023-04-18T12:02:47.359Z,77.58
2023-04-18T12:04:05.513Z,79.10
2023-04-18T12:05:15.055Z,80.46
2023-04-18T12:06:17.921Z,80.68
2023-04-18T12:07:33.940Z,79.65
2023-04-18T12:08:36.755Z,80.38
2023-04-18T12:09:39.147Z,79.13
2023-04-18T12:10:47.566Z,78.30
2023-04-18T12:11:59.674Z,79.43
2023-04-18T12:13:06.739Z,77.16
2023-04-18T12:14:23.323Z,76.21
2023-04-18T12:15:28.162Z,74.04
2023-04-18T12:16:30.876Z,74.43
2023-04-18T12:17:33.704Z,73.31
2023-04-18T12:18:36.327Z,73.50
2023-04-18T12:19:46.215Z,74.11
2023-04-18T12:20:52.360Z,74.43
2023-04-18T12:21:56.717Z,74.32
2023-04-18T12:22:59.350Z,75.33
2023-04-18T12:24:15.388Z,76.78
2023-04-18T12:25:26.639Z,76.29
2023-04-18T12:26:29.734Z,77.80
2023-04-18T12:27:54.435Z,78.50
2023-04-18T12:28:58.376Z,77.77
2023-04-18T12:29:59.915Z,78.97
2023-04-18T12:31:09.141Z,80.17
2023-04-18T12:32:11.034Z,79.99
2023-04-18T12:33:13.849Z,79.10
2023-04-18T12:34:15.837Z,80.63
2023-04-18T12:35:21.814Z,81.01
2023-04-18T12:36:23.445Z,83.00
2023-04-18T12:37:26.021Z,83.13
2023-04-18T12:38:28.604Z,84.04
2023-04-18T12:39:30.157Z,84.40
2023-04-18T12:40:32.916Z,84.45
2023-04-18T12:41:35.431Z,85.42
2023-04-18T12:42:37.214Z,86.11
2023-04-18T12:43:39.714Z,85.77
2023-04-18T12:44:45.853Z,86.13
2023-04-18T12:45:50.400Z,83.19
2023-04-18T12:46:51.960Z,83.54
2023-04-18T12:47:54.596Z,82.15
2023-04-18T12:48:57.203Z,83.31
2023-04-18T12:49:59.721Z,83.11
2023-04-18T12:51:13.399Z,83.73
2023-04-18T12:52:16.132Z,84.75
2023-04-18T12:53:18.692Z,84.95
2023-04-18T12:54:20.659Z,84.64
2023-04-18T12:55:24.459Z,84.02
2023-04-18T12:56:27.055Z,85.86
2023-04-18T12:57:31.194Z,85.33
2023-04-18T12:58:34.229Z,85.79
2023-04-18T12:59:35.818Z,86.33
2023-04-18T13:00:38.401Z,85.12
2023-04-18T13:01:39.939Z,84.71
2023-04-18T13:02:44.168Z,85.52
2023-04-18T13:03:53.385Z,84.65
2023-04-18T13:05:03.110Z,84.91
2023-04-18T13:06:14.219Z,85.49
2023-04-18T13:07:15.920Z,87.01
2023-04-18T13:08:18.450Z,87.58
2023-04-18T13:09:20.133Z,87.17
2023-04-18T13:10:25.539Z,86.72
2023-04-18T13:11:28.965Z,86.45
2023-04-18T13:12:33.792Z,86.78
2023-04-18T13:13:37.108Z,87.24
2023-04-18T13:14:39.134Z,86.62
2023-04-18T13:15:41.793Z,86.28
2023-04-18T13:16:44.228Z,87.02
2023-04-18T13:17:47.290Z,86.84
2023-04-18T13:18:50.048Z,85.32
2023-04-18T13:19:53.223Z,85.36
2023-04-18T13:20:55.977Z,85.15
2023-04-18T13:21:59.097Z,86.54
2023-04-18T13:23:08.212Z,88.01
2023-04-18T13:24:12.127Z,88.02
2023-04-18T13:25:14.706Z,87.89
2023-04-18T13:26:17.244Z,88.04
2023-04-18T13:27:19.868Z,89.08
2023-04-18T13:28:21.475Z,88.38
2023-04-18T13:29:24.226Z,87.33
2023-04-18T13:30:27.645Z,87.62